sensor_id;sensor_type;location;lat;lon;timestamp;P1;durP1;ratioP1;P2;durP2;ratioP2
63714;SDS011;49858;48.956;9.076;2022-12-18T00:01:26;29.65;;;13.30;;
63714;SDS011;49858;48.956;9.076;2022-12-18T00:03:59;28.02;;;13.07;;
63714;SDS011;49858;48.956;9.076;2022-12-18T00:06:29;34.83;;;13.48;;
63714;SDS011;49858;48.956;9.076;2022-12-18T00:08:59;12.63;;;6.35;;
63714;SDS011;49858;48.956;9.076;2022-12-18T00:11:28;22.35;;;11.10;;
63714;SDS011;49858;48.956;9.076;2022-12-18T00:13:57;18.20;;;8.45;;
63714;SDS011;49858;48.956;9.076;2022-12-18T00:16:26;32.60;;;13.38;;
63714;SDS011;49858;48.956;9.076;2022-12-18T00:18:57;27.20;;;11.93;;
63714;SDS011;49858;48.956;9.076;2022-12-18T00:21:27;20.27;;;10.02;;
63714;SDS011;49858;48.956;9.076;2022-12-18T00:23:55;9.80;;;6.55;;
63714;SDS011;49858;48.956;9.076;2022-12-18T00:26:24;15.43;;;7.70;;
63714;SDS011;49858;48.956;9.076;2022-12-18T00:28:57;15.35;;;9.13;;
63714;SDS011;49858;48.956;9.076;2022-12-18T00:31:29;19.50;;;8.32;;
63714;SDS011;49858;48.956;9.076;2022-12-18T00:34:00;28.48;;;13.40;;
63714;SDS011;49858;48.956;9.076;2022-12-18T00:36:29;13.43;;;9.27;;
63714;SDS011;49858;48.956;9.076;2022-12-18T00:38:58;26.70;;;12.65;;
63714;SDS011;49858;48.956;9.076;2022-12-18T00:41:27;17.55;;;10.05;;
63714;SDS011;49858;48.956;9.076;2022-12-18T00:44:14;12.32;;;5.68;;
63714;SDS011;49858;48.956;9.076;2022-12-18T00:46:44;17.13;;;10.25;;
63714;SDS011;49858;48.956;9.076;2022-12-18T00:49:14;40.60;;;19.45;;
63714;SDS011;49858;48.956;9.076;2022-12-18T00:51:43;26.83;;;11.27;;
63714;SDS011;49858;48.956;9.076;2022-12-18T00:54:10;13.85;;;6.10;;
63714;SDS011;49858;48.956;9.076;2022-12-18T00:56:39;10.32;;;4.82;;
63714;SDS011;49858;48.956;9.076;2022-12-18T00:59:16;19.65;;;8.45;;
63714;SDS011;49858;48.956;9.076;2022-12-18T01:01:44;15.70;;;9.05;;
63714;SDS011;49858;48.956;9.076;2022-12-18T01:04:14;11.40;;;6.10;;
63714;SDS011;49858;48.956;9.076;2022-12-18T01:06:44;22.23;;;7.55;;
63714;SDS011;49858;48.956;9.076;2022-12-18T01:09:12;6.20;;;4.10;;
63714;SDS011;49858;48.956;9.076;2022-12-18T01:11:39;16.80;;;7.88;;
63714;SDS011;49858;48.956;9.076;2022-12-18T01:14:09;9.65;;;6.78;;
63714;SDS011;49858;48.956;9.076;2022-12-18T01:16:37;12.77;;;6.35;;
63714;SDS011;49858;48.956;9.076;2022-12-18T01:19:05;3.13;;;2.53;;
63714;SDS011;49858;48.956;9.076;2022-12-18T01:21:34;2.10;;;2.00;;
63714;SDS011;49858;48.956;9.076;2022-12-18T01:24:03;10.25;;;5.65;;
63714;SDS011;49858;48.956;9.076;2022-12-18T01:26:32;1.92;;;1.83;;
63714;SDS011;49858;48.956;9.076;2022-12-18T01:29:00;19.60;;;10.88;;
63714;SDS011;49858;48.956;9.076;2022-12-18T01:31:28;15.00;;;9.57;;
63714;SDS011;49858;48.956;9.076;2022-12-18T01:34:01;6.68;;;3.55;;
63714;SDS011;49858;48.956;9.076;2022-12-18T01:36:30;16.05;;;7.00;;
63714;SDS011;49858;48.956;9.076;2022-12-18T01:39:01;21.92;;;10.25;;
63714;SDS011;49858;48.956;9.076;2022-12-18T01:41:31;15.45;;;8.32;;
63714;SDS011;49858;48.956;9.076;2022-12-18T01:47:29;14.55;;;9.57;;
63714;SDS011;49858;48.956;9.076;2022-12-18T01:50:02;19.63;;;10.85;;
63714;SDS011;49858;48.956;9.076;2022-12-18T01:52:32;11.30;;;8.25;;
63714;SDS011;49858;48.956;9.076;2022-12-18T01:55:03;20.08;;;8.98;;
63714;SDS011;49858;48.956;9.076;2022-12-18T01:57:33;47.65;;;17.23;;
63714;SDS011;49858;48.956;9.076;2022-12-18T02:00:03;18.35;;;8.70;;
63714;SDS011;49858;48.956;9.076;2022-12-18T02:02:39;19.33;;;10.90;;
63714;SDS011;49858;48.956;9.076;2022-12-18T02:05:09;24.02;;;10.32;;
63714;SDS011;49858;48.956;9.076;2022-12-18T02:07:42;14.65;;;7.55;;
63714;SDS011;49858;48.956;9.076;2022-12-18T02:10:22;16.60;;;9.30;;
63714;SDS011;49858;48.956;9.076;2022-12-18T02:12:56;15.18;;;7.05;;
63714;SDS011;49858;48.956;9.076;2022-12-18T02:15:34;3.90;;;2.45;;
63714;SDS011;49858;48.956;9.076;2022-12-18T02:18:08;4.78;;;2.17;;
63714;SDS011;49858;48.956;9.076;2022-12-18T02:20:41;3.75;;;2.65;;
63714;SDS011;49858;48.956;9.076;2022-12-18T02:23:16;20.77;;;10.77;;
63714;SDS011;49858;48.956;9.076;2022-12-18T02:26:04;12.82;;;7.28;;
63714;SDS011;49858;48.956;9.076;2022-12-18T02:28:41;22.45;;;8.50;;
63714;SDS011;49858;48.956;9.076;2022-12-18T02:31:13;17.90;;;7.55;;
63714;SDS011;49858;48.956;9.076;2022-12-18T02:33:43;25.65;;;9.68;;
63714;SDS011;49858;48.956;9.076;2022-12-18T02:36:13;13.35;;;7.10;;
63714;SDS011;49858;48.956;9.076;2022-12-18T02:38:44;23.13;;;10.48;;
63714;SDS011;49858;48.956;9.076;2022-12-18T02:41:16;12.07;;;5.07;;
63714;SDS011;49858;48.956;9.076;2022-12-18T02:43:48;13.68;;;7.00;;
63714;SDS011;49858;48.956;9.076;2022-12-18T02:46:23;13.57;;;7.68;;
63714;SDS011;49858;48.956;9.076;2022-12-18T02:48:57;14.73;;;8.43;;
63714;SDS011;49858;48.956;9.076;2022-12-18T02:51:32;13.52;;;5.70;;
63714;SDS011;49858;48.956;9.076;2022-12-18T02:54:09;12.77;;;4.95;;
63714;SDS011;49858;48.956;9.076;2022-12-18T02:56:48;17.48;;;7.32;;
63714;SDS011;49858;48.956;9.076;2022-12-18T02:59:21;12.20;;;5.88;;
63714;SDS011;49858;48.956;9.076;2022-12-18T03:01:57;12.90;;;5.53;;
63714;SDS011;49858;48.956;9.076;2022-12-18T03:04:31;26.20;;;13.07;;
63714;SDS011;49858;48.956;9.076;2022-12-18T03:07:08;25.75;;;9.43;;
63714;SDS011;49858;48.956;9.076;2022-12-18T03:09:42;29.58;;;12.75;;
63714;SDS011;49858;48.956;9.076;2022-12-18T03:12:16;19.98;;;9.40;;
63714;SDS011;49858;48.956;9.076;2022-12-18T03:14:54;26.02;;;8.48;;
63714;SDS011;49858;48.956;9.076;2022-12-18T03:17:27;10.15;;;5.88;;
63714;SDS011;49858;48.956;9.076;2022-12-18T03:20:00;14.07;;;6.97;;
63714;SDS011;49858;48.956;9.076;2022-12-18T03:22:34;7.18;;;5.18;;
63714;SDS011;49858;48.956;9.076;2022-12-18T03:25:05;12.48;;;3.67;;
63714;SDS011;49858;48.956;9.076;2022-12-18T03:27:39;10.48;;;5.00;;
63714;SDS011;49858;48.956;9.076;2022-12-18T03:30:14;5.28;;;4.35;;
63714;SDS011;49858;48.956;9.076;2022-12-18T03:32:44;9.25;;;5.43;;
63714;SDS011;49858;48.956;9.076;2022-12-18T03:35:20;14.98;;;8.25;;
63714;SDS011;49858;48.956;9.076;2022-12-18T03:37:50;10.55;;;5.43;;
63714;SDS011;49858;48.956;9.076;2022-12-18T03:40:18;29.55;;;14.57;;
63714;SDS011;49858;48.956;9.076;2022-12-18T03:42:55;16.23;;;8.55;;
63714;SDS011;49858;48.956;9.076;2022-12-18T03:45:27;5.07;;;4.18;;
63714;SDS011;49858;48.956;9.076;2022-12-18T03:48:04;14.73;;;7.95;;
63714;SDS011;49858;48.956;9.076;2022-12-18T03:50:42;24.08;;;8.23;;
63714;SDS011;49858;48.956;9.076;2022-12-18T03:53:18;35.67;;;15.88;;
63714;SDS011;49858;48.956;9.076;2022-12-18T03:55:53;16.38;;;9.63;;
63714;SDS011;49858;48.956;9.076;2022-12-18T03:58:26;21.70;;;9.73;;
63714;SDS011;49858;48.956;9.076;2022-12-18T04:01:10;21.77;;;9.23;;
63714;SDS011;49858;48.956;9.076;2022-12-18T04:03:43;14.27;;;7.13;;
63714;SDS011;49858;48.956;9.076;2022-12-18T04:06:13;12.93;;;6.78;;
63714;SDS011;49858;48.956;9.076;2022-12-18T04:08:44;16.73;;;7.60;;
63714;SDS011;49858;48.956;9.076;2022-12-18T04:11:16;18.48;;;9.68;;
63714;SDS011;49858;48.956;9.076;2022-12-18T04:13:47;11.75;;;6.75;;
63714;SDS011;49858;48.956;9.076;2022-12-18T04:16:21;25.52;;;8.18;;
63714;SDS011;49858;48.956;9.076;2022-12-18T04:18:52;18.15;;;8.63;;
63714;SDS011;49858;48.956;9.076;2022-12-18T04:21:23;11.13;;;6.50;;
63714;SDS011;49858;48.956;9.076;2022-12-18T04:23:51;11.82;;;7.00;;
63714;SDS011;49858;48.956;9.076;2022-12-18T04:26:21;17.55;;;7.82;;
63714;SDS011;49858;48.956;9.076;2022-12-18T04:29:11;20.58;;;8.95;;
63714;SDS011;49858;48.956;9.076;2022-12-18T04:31:39;18.30;;;10.20;;
63714;SDS011;49858;48.956;9.076;2022-12-18T04:34:11;14.63;;;8.23;;
63714;SDS011;49858;48.956;9.076;2022-12-18T04:36:46;9.63;;;3.67;;
63714;SDS011;49858;48.956;9.076;2022-12-18T04:39:14;6.90;;;3.05;;
63714;SDS011;49858;48.956;9.076;2022-12-18T04:41:43;5.22;;;2.08;;
63714;SDS011;49858;48.956;9.076;2022-12-18T04:44:13;5.63;;;5.13;;
63714;SDS011;49858;48.956;9.076;2022-12-18T04:46:41;14.35;;;6.00;;
63714;SDS011;49858;48.956;9.076;2022-12-18T04:49:10;9.43;;;5.85;;
63714;SDS011;49858;48.956;9.076;2022-12-18T04:51:39;13.63;;;6.13;;
63714;SDS011;49858;48.956;9.076;2022-12-18T04:54:06;5.25;;;4.28;;
63714;SDS011;49858;48.956;9.076;2022-12-18T04:56:34;5.57;;;2.45;;
63714;SDS011;49858;48.956;9.076;2022-12-18T04:59:02;7.13;;;3.92;;
63714;SDS011;49858;48.956;9.076;2022-12-18T05:01:32;7.07;;;2.63;;
63714;SDS011;49858;48.956;9.076;2022-12-18T05:04:02;15.38;;;8.32;;
63714;SDS011;49858;48.956;9.076;2022-12-18T05:06:30;7.03;;;6.22;;
63714;SDS011;49858;48.956;9.076;2022-12-18T05:08:58;26.27;;;8.93;;
63714;SDS011;49858;48.956;9.076;2022-12-18T05:11:26;19.42;;;6.38;;
63714;SDS011;49858;48.956;9.076;2022-12-18T05:13:54;13.43;;;5.38;;
63714;SDS011;49858;48.956;9.076;2022-12-18T05:16:21;10.95;;;6.70;;
63714;SDS011;49858;48.956;9.076;2022-12-18T05:18:51;9.50;;;5.72;;
63714;SDS011;49858;48.956;9.076;2022-12-18T05:21:18;12.60;;;5.63;;
63714;SDS011;49858;48.956;9.076;2022-12-18T05:23:46;6.95;;;5.72;;
63714;SDS011;49858;48.956;9.076;2022-12-18T05:26:14;17.27;;;7.90;;
63714;SDS011;49858;48.956;9.076;2022-12-18T05:28:44;8.02;;;5.90;;
63714;SDS011;49858;48.956;9.076;2022-12-18T05:31:12;2.95;;;2.00;;
63714;SDS011;49858;48.956;9.076;2022-12-18T05:33:40;13.57;;;5.10;;
63714;SDS011;49858;48.956;9.076;2022-12-18T05:36:10;6.50;;;4.15;;
63714;SDS011;49858;48.956;9.076;2022-12-18T05:38:39;21.85;;;6.13;;
63714;SDS011;49858;48.956;9.076;2022-12-18T05:41:07;24.48;;;8.80;;
63714;SDS011;49858;48.956;9.076;2022-12-18T05:43:36;20.88;;;8.65;;
63714;SDS011;49858;48.956;9.076;2022-12-18T05:46:05;37.15;;;14.63;;
63714;SDS011;49858;48.956;9.076;2022-12-18T05:48:33;11.10;;;6.03;;
63714;SDS011;49858;48.956;9.076;2022-12-18T05:51:05;12.90;;;4.80;;
63714;SDS011;49858;48.956;9.076;2022-12-18T05:53:36;12.48;;;6.43;;
63714;SDS011;49858;48.956;9.076;2022-12-18T05:56:05;7.78;;;3.88;;
63714;SDS011;49858;48.956;9.076;2022-12-18T05:58:35;4.13;;;2.78;;
63714;SDS011;49858;48.956;9.076;2022-12-18T06:01:07;6.07;;;3.35;;
63714;SDS011;49858;48.956;9.076;2022-12-18T06:03:36;7.80;;;6.30;;
63714;SDS011;49858;48.956;9.076;2022-12-18T06:06:11;15.82;;;9.23;;
63714;SDS011;49858;48.956;9.076;2022-12-18T06:08:41;6.30;;;3.67;;
63714;SDS011;49858;48.956;9.076;2022-12-18T06:11:12;7.25;;;5.30;;
63714;SDS011;49858;48.956;9.076;2022-12-18T06:13:42;4.18;;;3.78;;
63714;SDS011;49858;48.956;9.076;2022-12-18T06:16:10;8.45;;;6.25;;
63714;SDS011;49858;48.956;9.076;2022-12-18T06:18:38;6.25;;;4.03;;
63714;SDS011;49858;48.956;9.076;2022-12-18T06:21:06;15.30;;;5.35;;
63714;SDS011;49858;48.956;9.076;2022-12-18T06:23:34;8.93;;;5.65;;
63714;SDS011;49858;48.956;9.076;2022-12-18T06:26:06;5.45;;;4.95;;
63714;SDS011;49858;48.956;9.076;2022-12-18T06:28:36;3.03;;;2.15;;
63714;SDS011;49858;48.956;9.076;2022-12-18T06:31:04;2.28;;;2.08;;
63714;SDS011;49858;48.956;9.076;2022-12-18T06:33:32;2.05;;;1.52;;
63714;SDS011;49858;48.956;9.076;2022-12-18T06:36:00;5.47;;;2.55;;
63714;SDS011;49858;48.956;9.076;2022-12-18T06:38:31;5.15;;;3.60;;
63714;SDS011;49858;48.956;9.076;2022-12-18T06:40:59;4.55;;;3.55;;
63714;SDS011;49858;48.956;9.076;2022-12-18T06:43:28;3.30;;;2.53;;
63714;SDS011;49858;48.956;9.076;2022-12-18T06:45:58;7.82;;;4.53;;
63714;SDS011;49858;48.956;9.076;2022-12-18T06:48:26;15.27;;;5.93;;
63714;SDS011;49858;48.956;9.076;2022-12-18T06:50:54;10.05;;;5.28;;
63714;SDS011;49858;48.956;9.076;2022-12-18T06:53:22;10.40;;;6.47;;
63714;SDS011;49858;48.956;9.076;2022-12-18T06:55:50;6.78;;;4.68;;
63714;SDS011;49858;48.956;9.076;2022-12-18T06:58:18;5.47;;;4.97;;
63714;SDS011;49858;48.956;9.076;2022-12-18T07:00:47;11.98;;;5.00;;
63714;SDS011;49858;48.956;9.076;2022-12-18T07:03:15;15.88;;;8.73;;
63714;SDS011;49858;48.956;9.076;2022-12-18T07:05:42;10.63;;;5.93;;
63714;SDS011;49858;48.956;9.076;2022-12-18T07:08:10;9.38;;;5.63;;
63714;SDS011;49858;48.956;9.076;2022-12-18T07:10:40;15.23;;;6.95;;
63714;SDS011;49858;48.956;9.076;2022-12-18T07:13:14;6.07;;;3.88;;
63714;SDS011;49858;48.956;9.076;2022-12-18T07:15:42;5.63;;;2.90;;
63714;SDS011;49858;48.956;9.076;2022-12-18T07:18:12;24.02;;;6.72;;
63714;SDS011;49858;48.956;9.076;2022-12-18T07:20:40;11.85;;;6.53;;
63714;SDS011;49858;48.956;9.076;2022-12-18T07:23:08;18.45;;;8.93;;
63714;SDS011;49858;48.956;9.076;2022-12-18T07:25:36;12.98;;;7.05;;
63714;SDS011;49858;48.956;9.076;2022-12-18T07:28:03;10.43;;;4.50;;
63714;SDS011;49858;48.956;9.076;2022-12-18T07:30:32;3.28;;;2.05;;
63714;SDS011;49858;48.956;9.076;2022-12-18T07:33:00;7.65;;;4.68;;
63714;SDS011;49858;48.956;9.076;2022-12-18T07:35:29;5.85;;;4.07;;
63714;SDS011;49858;48.956;9.076;2022-12-18T07:37:57;3.13;;;2.60;;
63714;SDS011;49858;48.956;9.076;2022-12-18T07:40:25;22.10;;;11.05;;
63714;SDS011;49858;48.956;9.076;2022-12-18T07:42:53;16.60;;;8.00;;
63714;SDS011;49858;48.956;9.076;2022-12-18T07:45:21;19.25;;;8.95;;
63714;SDS011;49858;48.956;9.076;2022-12-18T07:47:48;32.65;;;9.82;;
63714;SDS011;49858;48.956;9.076;2022-12-18T07:50:16;9.45;;;5.95;;
63714;SDS011;49858;48.956;9.076;2022-12-18T07:52:45;6.97;;;3.45;;
63714;SDS011;49858;48.956;9.076;2022-12-18T07:55:13;14.73;;;6.20;;
63714;SDS011;49858;48.956;9.076;2022-12-18T07:57:41;9.90;;;4.63;;
63714;SDS011;49858;48.956;9.076;2022-12-18T08:00:20;26.75;;;12.57;;
63714;SDS011;49858;48.956;9.076;2022-12-18T08:02:48;6.55;;;4.63;;
63714;SDS011;49858;48.956;9.076;2022-12-18T08:05:16;9.77;;;5.38;;
63714;SDS011;49858;48.956;9.076;2022-12-18T08:07:46;4.80;;;3.83;;
63714;SDS011;49858;48.956;9.076;2022-12-18T08:10:13;6.97;;;6.03;;
63714;SDS011;49858;48.956;9.076;2022-12-18T08:12:42;5.10;;;4.07;;
63714;SDS011;49858;48.956;9.076;2022-12-18T08:15:09;16.33;;;9.23;;
63714;SDS011;49858;48.956;9.076;2022-12-18T08:17:37;8.27;;;5.65;;
63714;SDS011;49858;48.956;9.076;2022-12-18T08:20:05;9.15;;;4.55;;
63714;SDS011;49858;48.956;9.076;2022-12-18T08:22:34;11.07;;;7.60;;
63714;SDS011;49858;48.956;9.076;2022-12-18T08:25:04;24.35;;;9.82;;
63714;SDS011;49858;48.956;9.076;2022-12-18T08:27:32;11.65;;;6.00;;
63714;SDS011;49858;48.956;9.076;2022-12-18T08:30:00;21.70;;;11.98;;
63714;SDS011;49858;48.956;9.076;2022-12-18T08:32:29;15.77;;;7.72;;
63714;SDS011;49858;48.956;9.076;2022-12-18T08:34:59;20.63;;;9.68;;
63714;SDS011;49858;48.956;9.076;2022-12-18T08:37:26;23.55;;;11.05;;
63714;SDS011;49858;48.956;9.076;2022-12-18T08:39:54;18.40;;;10.10;;
63714;SDS011;49858;48.956;9.076;2022-12-18T08:42:23;31.58;;;15.38;;
63714;SDS011;49858;48.956;9.076;2022-12-18T08:45:08;23.48;;;11.50;;
63714;SDS011;49858;48.956;9.076;2022-12-18T08:47:36;30.77;;;14.10;;
63714;SDS011;49858;48.956;9.076;2022-12-18T08:50:05;32.60;;;15.25;;
63714;SDS011;49858;48.956;9.076;2022-12-18T08:52:33;21.63;;;12.30;;
63714;SDS011;49858;48.956;9.076;2022-12-18T08:55:00;32.60;;;18.17;;
63714;SDS011;49858;48.956;9.076;2022-12-18T08:57:29;46.28;;;17.55;;
63714;SDS011;49858;48.956;9.076;2022-12-18T08:59:57;54.33;;;24.00;;
63714;SDS011;49858;48.956;9.076;2022-12-18T09:02:25;65.07;;;28.80;;
63714;SDS011;49858;48.956;9.076;2022-12-18T09:04:53;28.02;;;15.82;;
63714;SDS011;49858;48.956;9.076;2022-12-18T09:07:23;56.22;;;22.55;;
63714;SDS011;49858;48.956;9.076;2022-12-18T09:09:50;56.25;;;25.65;;
63714;SDS011;49858;48.956;9.076;2022-12-18T09:12:18;50.05;;;23.30;;
63714;SDS011;49858;48.956;9.076;2022-12-18T09:14:47;60.03;;;27.63;;
63714;SDS011;49858;48.956;9.076;2022-12-18T09:17:15;58.40;;;26.52;;
63714;SDS011;49858;48.956;9.076;2022-12-18T09:19:43;45.00;;;20.02;;
63714;SDS011;49858;48.956;9.076;2022-12-18T09:22:11;65.47;;;26.60;;
63714;SDS011;49858;48.956;9.076;2022-12-18T09:24:38;108.40;;;37.60;;
63714;SDS011;49858;48.956;9.076;2022-12-18T09:27:06;60.88;;;26.50;;
63714;SDS011;49858;48.956;9.076;2022-12-18T09:29:34;50.92;;;22.55;;
63714;SDS011;49858;48.956;9.076;2022-12-18T09:32:03;77.95;;;28.42;;
63714;SDS011;49858;48.956;9.076;2022-12-18T09:34:31;82.10;;;29.15;;
63714;SDS011;49858;48.956;9.076;2022-12-18T09:36:59;66.90;;;27.52;;
63714;SDS011;49858;48.956;9.076;2022-12-18T09:39:27;68.43;;;26.77;;
63714;SDS011;49858;48.956;9.076;2022-12-18T09:41:55;66.80;;;25.35;;
63714;SDS011;49858;48.956;9.076;2022-12-18T09:44:26;64.13;;;26.23;;
63714;SDS011;49858;48.956;9.076;2022-12-18T09:46:59;85.63;;;31.95;;
63714;SDS011;49858;48.956;9.076;2022-12-18T09:49:41;75.85;;;29.70;;
63714;SDS011;49858;48.956;9.076;2022-12-18T09:52:12;69.68;;;27.50;;
63714;SDS011;49858;48.956;9.076;2022-12-18T09:54:46;99.60;;;33.22;;
63714;SDS011;49858;48.956;9.076;2022-12-18T09:57:20;57.25;;;25.33;;
63714;SDS011;49858;48.956;9.076;2022-12-18T09:59:51;62.40;;;28.83;;
63714;SDS011;49858;48.956;9.076;2022-12-18T10:02:24;53.13;;;26.25;;
63714;SDS011;49858;48.956;9.076;2022-12-18T10:05:01;67.15;;;28.15;;
63714;SDS011;49858;48.956;9.076;2022-12-18T10:07:34;27.50;;;16.42;;
63714;SDS011;49858;48.956;9.076;2022-12-18T10:10:16;19.55;;;10.88;;
63714;SDS011;49858;48.956;9.076;2022-12-18T10:12:55;52.17;;;23.42;;
63714;SDS011;49858;48.956;9.076;2022-12-18T10:15:31;55.13;;;24.83;;
63714;SDS011;49858;48.956;9.076;2022-12-18T10:18:13;8.02;;;7.22;;
63714;SDS011;49858;48.956;9.076;2022-12-18T10:20:51;30.30;;;17.90;;
63714;SDS011;49858;48.956;9.076;2022-12-18T10:23:25;29.20;;;17.00;;
63714;SDS011;49858;48.956;9.076;2022-12-18T10:26:00;35.95;;;19.92;;
63714;SDS011;49858;48.956;9.076;2022-12-18T10:28:32;38.97;;;19.50;;
63714;SDS011;49858;48.956;9.076;2022-12-18T10:31:04;28.52;;;18.67;;
63714;SDS011;49858;48.956;9.076;2022-12-18T10:33:34;43.85;;;22.17;;
63714;SDS011;49858;48.956;9.076;2022-12-18T10:36:02;62.95;;;25.50;;
63714;SDS011;49858;48.956;9.076;2022-12-18T10:38:30;69.47;;;27.65;;
63714;SDS011;49858;48.956;9.076;2022-12-18T10:41:00;63.15;;;26.85;;
63714;SDS011;49858;48.956;9.076;2022-12-18T10:43:32;37.08;;;20.98;;
63714;SDS011;49858;48.956;9.076;2022-12-18T10:48:49;101.68;;;34.28;;
63714;SDS011;49858;48.956;9.076;2022-12-18T10:51:21;30.80;;;14.07;;
63714;SDS011;49858;48.956;9.076;2022-12-18T10:53:53;68.65;;;26.48;;
63714;SDS011;49858;48.956;9.076;2022-12-18T10:56:23;53.83;;;25.55;;
63714;SDS011;49858;48.956;9.076;2022-12-18T10:58:57;72.65;;;28.85;;
63714;SDS011;49858;48.956;9.076;2022-12-18T11:01:27;73.57;;;28.23;;
63714;SDS011;49858;48.956;9.076;2022-12-18T11:04:01;73.20;;;26.52;;
63714;SDS011;49858;48.956;9.076;2022-12-18T11:06:35;157.40;;;42.30;;
63714;SDS011;49858;48.956;9.076;2022-12-18T11:09:21;67.28;;;25.60;;
63714;SDS011;49858;48.956;9.076;2022-12-18T11:11:50;109.93;;;33.00;;
63714;SDS011;49858;48.956;9.076;2022-12-18T11:14:21;63.08;;;24.58;;
63714;SDS011;49858;48.956;9.076;2022-12-18T11:16:51;107.32;;;34.00;;
63714;SDS011;49858;48.956;9.076;2022-12-18T11:19:42;103.85;;;35.55;;
63714;SDS011;49858;48.956;9.076;2022-12-18T11:22:17;76.35;;;27.10;;
63714;SDS011;49858;48.956;9.076;2022-12-18T11:24:52;68.72;;;25.30;;
63714;SDS011;49858;48.956;9.076;2022-12-18T11:27:46;96.03;;;28.48;;
63714;SDS011;49858;48.956;9.076;2022-12-18T11:30:20;46.08;;;20.48;;
63714;SDS011;49858;48.956;9.076;2022-12-18T11:32:49;111.22;;;33.78;;
63714;SDS011;49858;48.956;9.076;2022-12-18T11:35:22;101.60;;;29.63;;
63714;SDS011;49858;48.956;9.076;2022-12-18T11:38:02;88.55;;;26.10;;
63714;SDS011;49858;48.956;9.076;2022-12-18T11:40:37;138.98;;;35.88;;
63714;SDS011;49858;48.956;9.076;2022-12-18T11:43:09;102.72;;;28.42;;
63714;SDS011;49858;48.956;9.076;2022-12-18T11:45:41;83.80;;;26.52;;
63714;SDS011;49858;48.956;9.076;2022-12-18T11:48:17;97.95;;;30.45;;
63714;SDS011;49858;48.956;9.076;2022-12-18T11:50:50;89.82;;;30.17;;
63714;SDS011;49858;48.956;9.076;2022-12-18T11:53:19;100.32;;;30.70;;
63714;SDS011;49858;48.956;9.076;2022-12-18T11:55:50;129.90;;;37.88;;
63714;SDS011;49858;48.956;9.076;2022-12-18T11:58:41;91.65;;;32.20;;
63714;SDS011;49858;48.956;9.076;2022-12-18T12:01:23;118.32;;;33.20;;
63714;SDS011;49858;48.956;9.076;2022-12-18T12:07:21;48.17;;;22.58;;
63714;SDS011;49858;48.956;9.076;2022-12-18T12:10:01;105.63;;;34.65;;
63714;SDS011;49858;48.956;9.076;2022-12-18T12:12:44;105.38;;;34.00;;
63714;SDS011;49858;48.956;9.076;2022-12-18T12:15:29;141.02;;;43.63;;
63714;SDS011;49858;48.956;9.076;2022-12-18T12:18:08;113.43;;;35.10;;
63714;SDS011;49858;48.956;9.076;2022-12-18T12:20:49;157.60;;;42.25;;
63714;SDS011;49858;48.956;9.076;2022-12-18T12:23:28;90.13;;;33.47;;
63714;SDS011;49858;48.956;9.076;2022-12-18T12:26:06;110.57;;;36.83;;
63714;SDS011;49858;48.956;9.076;2022-12-18T12:28:44;70.63;;;29.35;;
63714;SDS011;49858;48.956;9.076;2022-12-18T12:31:31;76.70;;;25.92;;
63714;SDS011;49858;48.956;9.076;2022-12-18T12:34:11;54.92;;;24.40;;
63714;SDS011;49858;48.956;9.076;2022-12-18T12:36:49;131.98;;;35.00;;
63714;SDS011;49858;48.956;9.076;2022-12-18T12:39:28;54.08;;;23.52;;
63714;SDS011;49858;48.956;9.076;2022-12-18T12:42:00;188.18;;;42.67;;
63714;SDS011;49858;48.956;9.076;2022-12-18T12:44:47;193.75;;;38.40;;
63714;SDS011;49858;48.956;9.076;2022-12-18T12:47:23;98.80;;;28.02;;
63714;SDS011;49858;48.956;9.076;2022-12-18T12:50:03;138.55;;;34.30;;
63714;SDS011;49858;48.956;9.076;2022-12-18T12:52:39;146.10;;;33.90;;
63714;SDS011;49858;48.956;9.076;2022-12-18T12:55:15;165.55;;;34.63;;
63714;SDS011;49858;48.956;9.076;2022-12-18T12:57:48;170.02;;;37.08;;
63714;SDS011;49858;48.956;9.076;2022-12-18T13:00:23;214.82;;;40.83;;
63714;SDS011;49858;48.956;9.076;2022-12-18T13:02:56;219.07;;;42.35;;
63714;SDS011;49858;48.956;9.076;2022-12-18T13:05:31;202.85;;;42.53;;
63714;SDS011;49858;48.956;9.076;2022-12-18T13:08:07;209.77;;;41.33;;
63714;SDS011;49858;48.956;9.076;2022-12-18T13:10:39;251.15;;;46.47;;
63714;SDS011;49858;48.956;9.076;2022-12-18T13:13:09;285.58;;;50.08;;
63714;SDS011;49858;48.956;9.076;2022-12-18T13:15:39;236.20;;;45.33;;
63714;SDS011;49858;48.956;9.076;2022-12-18T13:18:19;234.70;;;47.65;;
63714;SDS011;49858;48.956;9.076;2022-12-18T13:20:49;278.17;;;48.83;;
63714;SDS011;49858;48.956;9.076;2022-12-18T13:23:31;270.27;;;45.33;;
63714;SDS011;49858;48.956;9.076;2022-12-18T13:29:00;178.65;;;37.83;;
63714;SDS011;49858;48.956;9.076;2022-12-18T13:34:27;258.52;;;48.03;;
63714;SDS011;49858;48.956;9.076;2022-12-18T13:39:59;276.92;;;50.17;;
63714;SDS011;49858;48.956;9.076;2022-12-18T13:42:40;183.35;;;36.25;;
63714;SDS011;49858;48.956;9.076;2022-12-18T13:45:41;299.67;;;52.50;;
63714;SDS011;49858;48.956;9.076;2022-12-18T13:48:17;258.98;;;44.92;;
63714;SDS011;49858;48.956;9.076;2022-12-18T13:50:52;243.68;;;47.60;;
63714;SDS011;49858;48.956;9.076;2022-12-18T13:53:23;254.57;;;48.05;;
63714;SDS011;49858;48.956;9.076;2022-12-18T13:55:54;305.65;;;49.90;;
63714;SDS011;49858;48.956;9.076;2022-12-18T13:58:23;263.15;;;48.58;;
63714;SDS011;49858;48.956;9.076;2022-12-18T14:00:51;311.15;;;50.42;;
63714;SDS011;49858;48.956;9.076;2022-12-18T14:03:21;208.82;;;37.22;;
63714;SDS011;49858;48.956;9.076;2022-12-18T14:05:56;232.15;;;45.33;;
63714;SDS011;49858;48.956;9.076;2022-12-18T14:08:29;216.60;;;40.70;;
63714;SDS011;49858;48.956;9.076;2022-12-18T14:11:03;243.90;;;39.60;;
63714;SDS011;49858;48.956;9.076;2022-12-18T14:13:35;222.32;;;40.47;;
63714;SDS011;49858;48.956;9.076;2022-12-18T14:16:06;248.90;;;41.58;;
63714;SDS011;49858;48.956;9.076;2022-12-18T14:18:39;157.05;;;31.65;;
63714;SDS011;49858;48.956;9.076;2022-12-18T14:21:18;168.70;;;35.20;;
63714;SDS011;49858;48.956;9.076;2022-12-18T14:23:48;106.40;;;27.65;;
63714;SDS011;49858;48.956;9.076;2022-12-18T14:26:30;205.52;;;35.60;;
63714;SDS011;49858;48.956;9.076;2022-12-18T14:29:01;119.97;;;25.00;;
63714;SDS011;49858;48.956;9.076;2022-12-18T14:31:50;200.05;;;36.72;;
63714;SDS011;49858;48.956;9.076;2022-12-18T14:34:40;120.10;;;30.10;;
63714;SDS011;49858;48.956;9.076;2022-12-18T14:37:09;158.25;;;32.10;;
63714;SDS011;49858;48.956;9.076;2022-12-18T14:39:37;201.90;;;37.28;;
63714;SDS011;49858;48.956;9.076;2022-12-18T14:42:05;169.82;;;32.67;;
63714;SDS011;49858;48.956;9.076;2022-12-18T14:44:38;217.65;;;37.72;;
63714;SDS011;49858;48.956;9.076;2022-12-18T14:47:32;119.30;;;25.58;;
63714;SDS011;49858;48.956;9.076;2022-12-18T14:50:00;172.50;;;33.17;;
63714;SDS011;49858;48.956;9.076;2022-12-18T14:52:28;93.65;;;22.80;;
63714;SDS011;49858;48.956;9.076;2022-12-18T14:54:59;195.52;;;36.72;;
63714;SDS011;49858;48.956;9.076;2022-12-18T14:57:28;154.52;;;32.50;;
63714;SDS011;49858;48.956;9.076;2022-12-18T15:00:06;192.18;;;38.08;;
63714;SDS011;49858;48.956;9.076;2022-12-18T15:02:42;114.15;;;26.30;;
63714;SDS011;49858;48.956;9.076;2022-12-18T15:05:16;203.38;;;38.33;;
63714;SDS011;49858;48.956;9.076;2022-12-18T15:07:46;164.65;;;35.10;;
63714;SDS011;49858;48.956;9.076;2022-12-18T15:10:16;167.68;;;33.97;;
63714;SDS011;49858;48.956;9.076;2022-12-18T15:12:46;115.20;;;22.48;;
63714;SDS011;49858;48.956;9.076;2022-12-18T15:18:23;193.57;;;37.88;;